createdAt,value
2023-04-19T00:02:23.844Z,100063.63
2023-04-19T00:04:51.340Z,100062.72
2023-04-19T00:07:20.350Z,100057.47
2023-04-19T00:09:47.797Z,100061.53
2023-04-19T00:12:14.971Z,100063.81
2023-04-19T00:14:42.141Z,100067.84
2023-04-19T00:17:11.287Z,100061.03
2023-04-19T00:19:39.178Z,100058.22
2023-04-19T00:22:06.372Z,100062.47
2023-04-19T00:24:33.573Z,100057.94
2023-04-19T00:27:00.749Z,100064.88
2023-04-19T00:29:28.165Z,100058.84
2023-04-19T00:31:55.429Z,100056.06
2023-04-19T00:34:24.485Z,100053.31
2023-04-19T00:36:51.930Z,100065.44
2023-04-19T00:39:19.137Z,100060.25
2023-04-19T00:41:46.404Z,100057.56
2023-04-19T00:44:13.742Z,100056.72
2023-04-19T00:46:42.603Z,100049.63
2023-04-19T00:49:10.328Z,100048.00
2023-04-19T00:51:37.640Z,100053.69
2023-04-19T00:54:05.095Z,100045.53
2023-04-19T00:56:35.650Z,100048.06
2023-04-19T00:59:03.180Z,100051.66
2023-04-19T01:01:31.586Z,100052.44
2023-04-19T01:03:59.228Z,100047.06
2023-04-19T01:06:28.327Z,100046.75
2023-04-19T01:08:56.472Z,100048.09
2023-04-19T01:11:25.078Z,100047.94
2023-04-19T01:13:52.708Z,100041.66
2023-04-19T01:16:20.101Z,100041.44
2023-04-19T01:18:47.326Z,100042.25
2023-04-19T01:21:14.570Z,100047.66
2023-04-19T01:23:42.028Z,100041.50
2023-04-19T01:26:09.452Z,100044.19
2023-04-19T01:28:37.116Z,100049.44
2023-04-19T01:31:04.494Z,100036.50
2023-04-19T01:33:31.787Z,100033.66
2023-04-19T01:35:59.049Z,100031.03
2023-04-19T01:38:26.335Z,100027.75
2023-04-19T01:40:53.621Z,100027.75
2023-04-19T01:43:21.014Z,100028.63
2023-04-19T01:45:48.332Z,100025.06
2023-04-19T01:48:15.608Z,100021.25
2023-04-19T01:50:43.051Z,100022.81
2023-04-19T01:53:11.387Z,100028.72
2023-04-19T01:55:39.852Z,100020.72
2023-04-19T01:58:07.258Z,100025.81
2023-04-19T02:00:34.930Z,100020.50
2023-04-19T02:03:05.110Z,100022.09
2023-04-19T02:05:32.730Z,100024.78
2023-04-19T02:08:01.505Z,100010.72
2023-04-19T02:10:31.286Z,100014.81
2023-04-19T02:12:58.471Z,100010.25
2023-04-19T02:15:25.698Z,100012.88
2023-04-19T02:17:55.747Z,100011.84
2023-04-19T02:20:24.496Z,100011.31
2023-04-19T02:22:51.725Z,100008.84
2023-04-19T02:25:19.454Z,100008.69
2023-04-19T02:27:47.057Z,100003.63
2023-04-19T02:30:14.752Z,100001.00
2023-04-19T02:32:42.003Z,100004.84
2023-04-19T02:35:13.151Z,100003.13
2023-04-19T02:37:40.307Z,100010.59
2023-04-19T02:40:09.047Z,100002.53
2023-04-19T02:42:36.458Z,99999.59
2023-04-19T02:45:04.088Z,99995.16
2023-04-19T02:47:31.283Z,99994.13
2023-04-19T02:49:59.817Z,99992.16
2023-04-19T02:52:27.793Z,99992.25
2023-04-19T02:54:55.102Z,99988.66
2023-04-19T02:57:22.401Z,99988.66
2023-04-19T02:59:49.827Z,99986.69
2023-04-19T03:02:17.143Z,99988.19
2023-04-19T03:04:44.415Z,99989.59
2023-04-19T03:07:11.825Z,99991.16
2023-04-19T03:09:40.317Z,99987.41
2023-04-19T03:12:08.287Z,99979.50
2023-04-19T03:14:35.830Z,99981.88
2023-04-19T03:17:03.701Z,99987.81
2023-04-19T03:19:31.251Z,99990.34
2023-04-19T03:21:58.650Z,99989.09
2023-04-19T03:24:30.727Z,99984.31
2023-04-19T03:27:01.209Z,99982.78
2023-04-19T03:29:32.024Z,99988.00
2023-04-19T03:32:09.563Z,99986.16
2023-04-19T03:34:36.964Z,99978.22
2023-04-19T03:37:04.324Z,99989.31
2023-04-19T03:39:33.231Z,99987.28
2023-04-19T03:42:04.044Z,99992.03
2023-04-19T03:44:40.290Z,99978.28
2023-04-19T03:47:08.834Z,99984.34
2023-04-19T03:49:42.055Z,99976.34
2023-04-19T03:52:09.388Z,99973.81
2023-04-19T03:54:36.587Z,99974.56
2023-04-19T03:57:06.411Z,99977.00
2023-04-19T03:59:37.421Z,99981.09
2023-04-19T04:02:06.961Z,99978.13
2023-04-19T04:04:34.362Z,99972.09
2023-04-19T04:07:02.398Z,99968.69
2023-04-19T04:09:29.648Z,99974.69
2023-04-19T04:11:56.848Z,99976.28
2023-04-19T04:14:24.987Z,99975.69
2023-04-19T04:16:52.228Z,99973.00
2023-04-19T04:19:21.839Z,99988.50
2023-04-19T04:21:49.267Z,99984.91
2023-04-19T04:24:17.888Z,99990.53
2023-04-19T04:27:20.181Z,99988.25
2023-04-19T04:29:49.502Z,99989.13
2023-04-19T04:32:18.203Z,99985.88
2023-04-19T04:34:45.606Z,99983.63
2023-04-19T04:37:19.550Z,99987.09
2023-04-19T04:39:47.793Z,99994.47
2023-04-19T04:42:15.146Z,99990.88
2023-04-19T04:44:42.318Z,99992.91
2023-04-19T04:47:14.083Z,99993.72
2023-04-19T04:49:48.067Z,99999.66
2023-04-19T04:52:16.039Z,99996.53
2023-04-19T04:54:52.722Z,100001.41
2023-04-19T04:57:29.478Z,99998.38
2023-04-19T04:59:57.319Z,99991.81
2023-04-19T05:02:27.593Z,100001.06
2023-04-19T05:04:54.903Z,99997.22
2023-04-19T05:07:22.334Z,99992.91
2023-04-19T05:09:49.710Z,99994.59
2023-04-19T05:12:22.400Z,99992.91
2023-04-19T05:14:49.695Z,99998.13
2023-04-19T05:17:17.030Z,99992.91
2023-04-19T05:19:44.917Z,99996.66
2023-04-19T05:22:12.605Z,99996.09
2023-04-19T05:24:42.172Z,99993.00
2023-04-19T05:27:12.950Z,99991.69
2023-04-19T05:29:40.522Z,99993.66
2023-04-19T05:32:08.084Z,99993.97
2023-04-19T05:34:43.418Z,99986.28
2023-04-19T05:37:14.301Z,99982.97
2023-04-19T05:39:44.199Z,99984.75
2023-04-19T05:42:12.264Z,99982.63
2023-04-19T05:44:39.837Z,99978.69
2023-04-19T05:47:07.283Z,99975.59
2023-04-19T05:50:07.616Z,99982.19
2023-04-19T05:52:38.528Z,99976.38
2023-04-19T05:55:06.781Z,99977.59
2023-04-19T05:57:35.351Z,99983.13
2023-04-19T06:00:04.900Z,99977.75
2023-04-19T06:02:41.293Z,99978.13
2023-04-19T06:05:12.243Z,99987.50
2023-04-19T06:07:43.794Z,99985.75
2023-04-19T06:10:17.944Z,99980.34
2023-04-19T06:12:45.198Z,99980.50
2023-04-19T06:15:12.530Z,99977.34
2023-04-19T06:17:39.962Z,99979.56
2023-04-19T06:20:10.196Z,99968.47
2023-04-19T06:22:46.346Z,99980.38
2023-04-19T06:25:13.574Z,99971.88
2023-04-19T06:27:40.828Z,99973.50
2023-04-19T06:30:09.045Z,99973.94
2023-04-19T06:32:36.317Z,99968.06
2023-04-19T06:35:04.463Z,99964.78
2023-04-19T06:37:34.433Z,99967.81
2023-04-19T06:40:01.701Z,99963.91
2023-04-19T06:42:29.007Z,99967.28
2023-04-19T06:44:57.228Z,99965.25
2023-04-19T06:47:24.419Z,99969.88
2023-04-19T06:49:51.742Z,99966.75
2023-04-19T06:52:19.142Z,99969.25
2023-04-19T06:54:51.214Z,99965.00
2023-04-19T06:57:19.073Z,99967.09
2023-04-19T06:59:46.421Z,99970.28
2023-04-19T07:02:13.763Z,99963.06
2023-04-19T07:04:41.215Z,99968.94
2023-04-19T07:07:08.604Z,99967.63
2023-04-19T07:09:35.828Z,99969.78
2023-04-19T07:12:03.065Z,99968.75
2023-04-19T07:14:30.272Z,99960.75
2023-04-19T07:16:57.606Z,99944.50
2023-04-19T07:19:24.810Z,99950.94
2023-04-19T07:21:52.112Z,99951.38
2023-04-19T07:24:19.438Z,99945.19
2023-04-19T07:26:46.726Z,99956.69
2023-04-19T07:29:13.946Z,99952.44
2023-04-19T07:31:42.021Z,99948.38
2023-04-19T07:34:09.355Z,99954.72
2023-04-19T07:36:37.835Z,99946.94
2023-04-19T07:39:05.380Z,99949.75
2023-04-19T07:41:33.027Z,99947.06
2023-04-19T07:44:00.185Z,99944.59
2023-04-19T07:46:28.202Z,99943.31
2023-04-19T07:48:55.392Z,99940.88
2023-04-19T07:51:24.576Z,99938.34
2023-04-19T07:53:51.808Z,99933.53
2023-04-19T07:56:20.144Z,99938.22
2023-04-19T07:58:56.479Z,99939.22
2023-04-19T08:01:31.375Z,99933.19
2023-04-19T08:04:00.094Z,99928.16
2023-04-19T08:06:27.684Z,99929.47
2023-04-19T08:08:54.822Z,99934.13
2023-04-19T08:11:22.202Z,99927.34
2023-04-19T08:14:02.906Z,99931.63
2023-04-19T08:19:06.898Z,99924.16
2023-04-19T08:21:40.810Z,99920.84
2023-04-19T08:24:09.108Z,99920.06
2023-04-19T08:26:36.339Z,99915.81
2023-04-19T08:29:03.480Z,99919.03
2023-04-19T08:31:31.088Z,99921.38
2023-04-19T08:34:00.193Z,99924.56
2023-04-19T08:36:39.191Z,99919.13
2023-04-19T08:39:14.745Z,99914.00
2023-04-19T08:41:56.119Z,99921.38
2023-04-19T08:44:36.785Z,99911.28
2023-04-19T08:47:09.072Z,99909.78
2023-04-19T08:49:41.962Z,99907.28
2023-04-19T08:52:14.088Z,99907.50
2023-04-19T08:54:42.535Z,99905.84
2023-04-19T08:57:10.080Z,99909.56
2023-04-19T08:59:37.226Z,99900.56
2023-04-19T09:02:04.541Z,99903.59
2023-04-19T09:04:37.003Z,99902.34
2023-04-19T09:07:05.281Z,99901.78
2023-04-19T09:09:39.188Z,99907.00
2023-04-19T09:12:18.494Z,99897.78
2023-04-19T09:15:00.658Z,99887.66
2023-04-19T09:17:29.713Z,99881.66
2023-04-19T09:19:58.352Z,99878.59
2023-04-19T09:22:26.379Z,99869.53
2023-04-19T09:27:34.491Z,99858.50
2023-04-19T09:30:04.767Z,99857.03
2023-04-19T09:32:49.562Z,99855.38
2023-04-19T09:35:17.161Z,99851.91
2023-04-19T09:38:05.371Z,99847.97
2023-04-19T09:40:34.364Z,99848.47
2023-04-19T09:43:25.770Z,99852.25
2023-04-19T09:45:50.993Z,99858.53
2023-04-19T09:48:18.215Z,99845.38
2023-04-19T09:51:00.655Z,99836.03
2023-04-19T09:53:35.154Z,99832.31
2023-04-19T09:56:05.319Z,99829.88
2023-04-19T10:01:14.216Z,99829.31
2023-04-19T10:03:49.143Z,99821.63
2023-04-19T10:08:54.051Z,99810.88
2023-04-19T10:11:22.636Z,99806.81
2023-04-19T10:13:56.559Z,99816.25
2023-04-19T10:16:24.161Z,99808.56
2023-04-19T10:18:54.592Z,99803.66
2023-04-19T10:21:22.378Z,99797.25
2023-04-19T10:23:50.211Z,99788.69
2023-04-19T10:26:17.785Z,99780.59
2023-04-19T10:28:45.014Z,99784.34
2023-04-19T10:31:13.971Z,99781.75
2023-04-19T10:33:42.056Z,99789.34
2023-04-19T10:36:14.555Z,99778.66
2023-04-19T10:38:51.464Z,99774.72
2023-04-19T10:41:19.788Z,99776.06
2023-04-19T10:43:58.122Z,99775.78
2023-04-19T10:46:26.214Z,99756.22
2023-04-19T10:49:01.667Z,99756.22
2023-04-19T10:51:37.353Z,99754.03
2023-04-19T10:54:07.328Z,99746.72
2023-04-19T10:56:34.382Z,99746.50
2023-04-19T10:59:02.327Z,99746.25
2023-04-19T11:01:50.695Z,99743.50
2023-04-19T11:04:50.525Z,99730.91
2023-04-19T11:07:18.465Z,99715.09
2023-04-19T11:09:48.366Z,99710.00
2023-04-19T11:12:19.583Z,99701.56
2023-04-19T11:14:54.158Z,99694.81
2023-04-19T11:17:31.119Z,99692.28
2023-04-19T11:20:07.002Z,99683.84
2023-04-19T11:22:41.429Z,99682.63
2023-04-19T11:25:21.114Z,99684.22
2023-04-19T11:27:53.924Z,99683.19
2023-04-19T11:30:29.262Z,99675.78
2023-04-19T11:32:57.518Z,99670.09
2023-04-19T11:35:28.753Z,99672.34
2023-04-19T11:37:58.927Z,99668.25
2023-04-19T11:40:27.181Z,99659.13
2023-04-19T11:43:02.275Z,99652.97
2023-04-19T11:45:38.288Z,99657.31
2023-04-19T11:48:08.447Z,99649.25
2023-04-19T11:50:44.650Z,99638.72
2023-04-19T11:53:21.033Z,99640.50
2023-04-19T11:55:51.488Z,99628.97
2023-04-19T11:58:43.894Z,99627.31
2023-04-19T12:01:16.730Z,99627.31
2023-04-19T12:03:56.644Z,99620.06
2023-04-19T12:06:31.951Z,99623.72
2023-04-19T12:09:00.200Z,99616.66
2023-04-19T12:11:45.035Z,99608.66
2023-04-19T12:14:21.331Z,99613.97
2023-04-19T12:17:13.352Z,99602.31
2023-04-19T12:19:47.257Z,99591.50
2023-04-19T12:22:20.349Z,99591.75
2023-04-19T12:24:47.672Z,99589.13
2023-04-19T12:27:18.263Z,99590.03
2023-04-19T12:29:46.155Z,99587.28
2023-04-19T12:32:15.762Z,99565.16
2023-04-19T12:34:43.208Z,99569.63
2023-04-19T12:37:10.373Z,99553.66
2023-04-19T12:39:37.728Z,99557.00
2023-04-19T12:42:06.155Z,99564.16
2023-04-19T12:44:33.423Z,99560.72
2023-04-19T12:47:00.613Z,99558.09
2023-04-19T12:49:27.800Z,99551.00
2023-04-19T12:51:57.219Z,99546.59
2023-04-19T12:54:24.917Z,99538.63
2023-04-19T12:56:52.275Z,99545.69
2023-04-19T12:59:19.652Z,99538.56
2023-04-19T13:01:46.965Z,99522.66
2023-04-19T13:04:14.413Z,99515.56
2023-04-19T13:06:42.244Z,99519.03
2023-04-19T13:11:39.463Z,99510.13
2023-04-19T13:14:06.682Z,99503.97
2023-04-19T13:16:33.975Z,99502.28
2023-04-19T13:19:01.174Z,99493.28
2023-04-19T13:21:28.472Z,99488.97
2023-04-19T13:23:55.858Z,99493.28
2023-04-19T13:26:23.819Z,99482.78
2023-04-19T13:28:52.688Z,99481.81
2023-04-19T13:31:20.238Z,99478.34
2023-04-19T13:33:47.568Z,99464.13
2023-04-19T13:36:14.815Z,99461.41
2023-04-19T13:38:42.048Z,99459.16
2023-04-19T13:41:09.879Z,99450.78
2023-04-19T13:43:37.131Z,99441.69
2023-04-19T13:46:04.393Z,99442.50
2023-04-19T13:48:31.585Z,99436.97
2023-04-19T13:50:59.598Z,99438.03
2023-04-19T13:53:29.197Z,99424.78
2023-04-19T13:55:57.002Z,99414.41
2023-04-19T13:58:24.890Z,99413.13
2023-04-19T14:00:53.964Z,99408.56
2023-04-19T14:03:24.072Z,99400.41
2023-04-19T14:05:51.395Z,99401.59
2023-04-19T14:08:18.587Z,99399.25
2023-04-19T14:10:46.203Z,99380.66
2023-04-19T14:13:13.453Z,99374.84
2023-04-19T14:15:41.555Z,99369.78
2023-04-19T14:18:08.857Z,99372.66
2023-04-19T14:20:36.206Z,99370.03
2023-04-19T14:23:03.740Z,99370.53
2023-04-19T14:25:31.005Z,99361.72
2023-04-19T14:27:59.392Z,99356.97
2023-04-19T14:30:27.020Z,99351.81
2023-04-19T14:32:55.033Z,99353.66
2023-04-19T14:35:22.440Z,99340.38
2023-04-19T14:37:49.745Z,99336.88
2023-04-19T14:40:18.447Z,99317.38
2023-04-19T14:42:45.689Z,99323.16
2023-04-19T14:45:12.953Z,99322.97
2023-04-19T14:47:40.443Z,99315.84
2023-04-19T14:50:08.260Z,99329.31
2023-04-19T14:52:35.568Z,99322.97
2023-04-19T14:55:06.192Z,99315.63
2023-04-19T14:57:33.342Z,99309.19
2023-04-19T15:00:01.278Z,99304.41
2023-04-19T15:02:29.071Z,99305.09
2023-04-19T15:04:56.932Z,99292.94
2023-04-19T15:07:24.310Z,99297.50
2023-04-19T15:09:51.482Z,99304.28
2023-04-19T15:12:18.636Z,99297.28
2023-04-19T15:14:45.912Z,99292.13
2023-04-19T15:17:13.105Z,99291.16
2023-04-19T15:19:40.307Z,99281.84
2023-04-19T15:22:07.667Z,99279.91
2023-04-19T15:24:35.853Z,99282.31
2023-04-19T15:27:04.012Z,99286.38
2023-04-19T15:29:31.197Z,99277.88
2023-04-19T15:31:58.533Z,99280.75
2023-04-19T15:34:25.761Z,99279.22
2023-04-19T15:36:52.939Z,99274.31
2023-04-19T15:39:20.144Z,99275.66
2023-04-19T15:41:47.277Z,99279.31
2023-04-19T15:44:14.494Z,99283.84
2023-04-19T15:46:41.711Z,99273.94
2023-04-19T15:49:09.171Z,99278.41
2023-04-19T15:51:36.365Z,99274.56
2023-04-19T15:54:03.840Z,99273.03
2023-04-19T15:56:31.221Z,99288.97
2023-04-19T15:58:58.383Z,99280.28
2023-04-19T16:01:26.888Z,99278.06
2023-04-19T16:03:54.317Z,99264.03
2023-04-19T16:06:23.097Z,99272.59
2023-04-19T16:08:50.842Z,99273.72
2023-04-19T16:11:18.038Z,99271.81
2023-04-19T16:13:45.284Z,99266.84
2023-04-19T16:16:15.268Z,99268.22
2023-04-19T16:18:42.458Z,99278.50
2023-04-19T16:21:10.632Z,99276.59
2023-04-19T16:23:37.869Z,99270.47
2023-04-19T16:26:05.160Z,99276.16
2023-04-19T16:28:32.329Z,99273.91
2023-04-19T16:30:59.528Z,99268.72
2023-04-19T16:33:26.716Z,99262.16
2023-04-19T16:35:53.984Z,99268.44
2023-04-19T16:38:21.134Z,99261.22
2023-04-19T16:40:49.171Z,99264.81
2023-04-19T16:43:16.371Z,99260.19
2023-04-19T16:45:43.565Z,99256.91
2023-04-19T16:48:10.957Z,99251.47
2023-04-19T16:50:38.279Z,99246.19
2023-04-19T16:53:05.736Z,99244.22
2023-04-19T16:55:33.135Z,99245.91
2023-04-19T16:58:00.415Z,99237.34
2023-04-19T17:00:27.739Z,99240.38
2023-04-19T17:02:55.144Z,99245.13
2023-04-19T17:05:22.344Z,99240.22
2023-04-19T17:07:51.711Z,99234.94
2023-04-19T17:10:19.887Z,99238.72
2023-04-19T17:12:47.338Z,99231.50
2023-04-19T17:15:14.484Z,99239.50
2023-04-19T17:17:42.818Z,99238.28
2023-04-19T17:20:10.551Z,99229.19
2023-04-19T17:22:37.794Z,99232.22
2023-04-19T17:25:05.906Z,99243.06
2023-04-19T17:27:33.253Z,99230.88
2023-04-19T17:30:00.452Z,99237.28
2023-04-19T17:32:27.984Z,99234.19
2023-04-19T17:34:55.168Z,99246.81
2023-04-19T17:37:23.962Z,99243.47
2023-04-19T17:39:51.195Z,99241.78
2023-04-19T17:42:18.350Z,99244.56
2023-04-19T17:44:45.558Z,99243.84
2023-04-19T17:47:13.087Z,99246.47
2023-04-19T17:49:41.390Z,99247.31
2023-04-19T17:52:08.706Z,99248.34
2023-04-19T17:54:36.154Z,99246.69
2023-04-19T17:57:03.525Z,99253.69
2023-04-19T17:59:30.845Z,99266.34
2023-04-19T18:01:58.186Z,99265.25
2023-04-19T18:04:25.826Z,99276.94
2023-04-19T18:06:53.127Z,99274.38
2023-04-19T18:09:20.343Z,99276.19
2023-04-19T18:11:47.993Z,99283.28
2023-04-19T18:14:15.360Z,99288.69
2023-04-19T18:16:42.670Z,99278.06
2023-04-19T18:19:09.875Z,99288.78
2023-04-19T18:21:37.105Z,99287.94
2023-04-19T18:24:04.837Z,99291.44
2023-04-19T18:26:43.176Z,99299.44
2023-04-19T18:29:15.928Z,99303.84
2023-04-19T18:31:43.517Z,99321.56
2023-04-19T18:34:12.475Z,99334.81
2023-04-19T18:36:39.849Z,99342.69
2023-04-19T18:39:07.196Z,99358.66
2023-04-19T18:41:35.458Z,99368.28
2023-04-19T18:46:33.177Z,99376.28
2023-04-19T18:49:01.097Z,99384.06
2023-04-19T18:51:28.766Z,99383.00
2023-04-19T18:53:55.906Z,99380.81
2023-04-19T18:56:56.143Z,99389.06
2023-04-19T18:59:11.108Z,99396.88
2023-04-19T19:01:38.818Z,99392.53
2023-04-19T19:06:36.302Z,99394.75
2023-04-19T19:09:03.916Z,99400.88
2023-04-19T19:14:02.853Z,99410.41
2023-04-19T19:16:31.216Z,99403.28
2023-04-19T19:18:58.551Z,99411.94
2023-04-19T19:21:27.291Z,99412.66
2023-04-19T19:23:57.752Z,99413.59
2023-04-19T19:26:26.143Z,99423.72
2023-04-19T19:28:53.627Z,99427.34
2023-04-19T19:31:21.278Z,99429.91
2023-04-19T19:33:57.054Z,99437.28
2023-04-19T19:36:36.118Z,99444.84
2023-04-19T19:39:03.335Z,99443.94
2023-04-19T19:42:03.287Z,99447.25
2023-04-19T19:44:18.145Z,99438.50
2023-04-19T19:46:45.869Z,99447.81
2023-04-19T19:49:13.414Z,99453.00
2023-04-19T19:51:56.648Z,99442.19
2023-04-19T19:54:25.260Z,99447.66
2023-04-19T19:59:29.110Z,99433.56
2023-04-19T20:01:57.016Z,99426.00
2023-04-19T20:04:24.505Z,99414.38
2023-04-19T20:09:22.219Z,99403.22
2023-04-19T20:11:49.446Z,99410.91
2023-04-19T20:14:16.728Z,99415.72
2023-04-19T20:16:44.460Z,99410.13
2023-04-19T20:20:05.576Z,99411.78
2023-04-19T20:22:32.716Z,99415.38
2023-04-19T20:25:00.398Z,99432.56
2023-04-19T20:27:29.076Z,99434.03
2023-04-19T20:29:57.193Z,99438.03
2023-04-19T20:32:25.885Z,99448.91
2023-04-19T20:34:53.968Z,99453.94
2023-04-19T20:37:23.235Z,99442.28
2023-04-19T20:39:50.572Z,99446.47
2023-04-19T20:42:18.086Z,99453.94
2023-04-19T20:44:45.235Z,99460.59
2023-04-19T20:47:12.928Z,99473.50
2023-04-19T20:49:40.968Z,99472.81
2023-04-19T20:52:08.238Z,99488.97
2023-04-19T20:54:36.626Z,99482.69
2023-04-19T20:57:04.626Z,99496.91
2023-04-19T20:59:32.129Z,99520.28
2023-04-19T21:02:00.168Z,99518.03
2023-04-19T21:04:27.943Z,99530.25
2023-04-19T21:06:55.378Z,99531.56
2023-04-19T21:09:22.761Z,99536.31
2023-04-19T21:11:50.019Z,99536.63
2023-04-19T21:14:18.449Z,99526.84
2023-04-19T21:16:45.741Z,99531.66
2023-04-19T21:19:13.135Z,99524.94
2023-04-19T21:21:41.247Z,99523.38
2023-04-19T21:24:08.772Z,99519.88
2023-04-19T21:26:36.433Z,99527.69
2023-04-19T21:29:03.685Z,99521.22
2023-04-19T21:31:30.969Z,99516.66
2023-04-19T21:33:58.150Z,99518.13
2023-04-19T21:36:26.300Z,99524.38
2023-04-19T21:38:53.722Z,99532.34
2023-04-19T21:41:21.291Z,99540.38
2023-04-19T21:43:48.540Z,99545.38
2023-04-19T21:46:16.203Z,99553.88
2023-04-19T21:48:43.515Z,99564.06
2023-04-19T21:51:13.363Z,99570.28
2023-04-19T21:53:40.771Z,99580.03
2023-04-19T21:56:08.869Z,99578.97
2023-04-19T21:58:36.518Z,99582.66
2023-04-19T22:01:04.147Z,99579.22
2023-04-19T22:03:31.871Z,99577.31
2023-04-19T22:06:02.149Z,99575.97
2023-04-19T22:08:32.159Z,99586.50
2023-04-19T22:11:01.157Z,99585.41
2023-04-19T22:13:30.090Z,99591.78
2023-04-19T22:15:57.364Z,99585.25
2023-04-19T22:18:24.706Z,99566.38
2023-04-19T22:20:53.176Z,99555.66
2023-04-19T22:23:20.329Z,99547.19
2023-04-19T22:25:47.582Z,99539.66
2023-04-19T22:28:14.786Z,99543.19
2023-04-19T22:30:42.051Z,99547.69
2023-04-19T22:33:09.357Z,99555.34
2023-04-19T22:35:37.079Z,99555.97
2023-04-19T22:38:04.323Z,99551.41
2023-04-19T22:40:31.840Z,99546.84
2023-04-19T22:42:59.053Z,99538.13
2023-04-19T22:45:26.447Z,99522.69
2023-04-19T22:47:53.802Z,99514.81
2023-04-19T22:50:23.430Z,99504.91
2023-04-19T22:52:51.172Z,99505.03
2023-04-19T22:55:18.462Z,99523.75
2023-04-19T22:57:45.813Z,99540.13
2023-04-19T23:00:13.765Z,99560.22
2023-04-19T23:02:41.141Z,99582.59
2023-04-19T23:05:09.023Z,99592.81
2023-04-19T23:07:36.266Z,99606.81
2023-04-19T23:10:03.676Z,99610.50
2023-04-19T23:12:31.113Z,99609.13
2023-04-19T23:14:58.330Z,99616.91
2023-04-19T23:17:26.311Z,99608.09
2023-04-19T23:19:53.520Z,99612.56
2023-04-19T23:22:21.248Z,99612.56
2023-04-19T23:24:48.862Z,99601.69
2023-04-19T23:27:16.359Z,99597.84
2023-04-19T23:29:43.597Z,99607.63
2023-04-19T23:32:11.136Z,99600.56
2023-04-19T23:34:38.362Z,99606.44
2023-04-19T23:37:05.586Z,99596.06
2023-04-19T23:39:32.782Z,99585.44
2023-04-19T23:42:00.004Z,99588.81
2023-04-19T23:44:27.410Z,99596.56
2023-04-19T23:46:54.876Z,99599.19
2023-04-19T23:49:22.415Z,99597.25
2023-04-19T23:51:52.800Z,99605.78
2023-04-19T23:54:26.090Z,99616.56
2023-04-19T23:56:53.929Z,99605.84
2023-04-19T23:59:21.384Z,99593.19
